Time;durP1;ratioP1;P1;durP2;ratioP2;P2;SDS_P1;SDS_P2;PMS_P1;PMS_P2;Temp;Humidity;BMP_temperature;BMP_pressure;BME280_temperature;BME280_humidity;BME280_pressure;Samples;Min_cycle;Max_cycle;Signal;HPM_P1;HPM_P2
2021/04/05 00:01:02;;;;;;;34.43;18.60;;;5.10;99.90;;;;;;5073794;28;20712;-80
2021/04/05 00:03:30;;;;;;;28.77;16.77;;;5.00;99.90;;;;;;5073298;28;20637;-80
2021/04/05 00:05:56;;;;;;;29.27;16.37;;;5.00;99.90;;;;;;5073957;28;20256;-79
2021/04/05 00:08:23;;;;;;;34.47;16.30;;;5.00;99.90;;;;;;5073272;28;20611;-80
2021/04/05 00:10:51;;;;;;;34.30;16.40;;;4.90;99.90;;;;;;5073260;28;20650;-79
2021/04/05 00:13:22;;;;;;;26.70;15.83;;;4.90;99.90;;;;;;5073063;28;20258;-79
2021/04/05 00:15:48;;;;;;;29.07;15.23;;;4.90;99.90;;;;;;5073313;28;20282;-78
2021/04/05 00:18:16;;;;;;;22.53;15.43;;;4.90;99.90;;;;;;5073648;28;20248;-78
2021/04/05 00:20:47;;;;;;;29.17;15.57;;;4.80;99.90;;;;;;5073543;28;20203;-78
2021/04/05 00:23:14;;;;;;;24.70;14.60;;;4.80;99.90;;;;;;5073526;28;20198;-78
2021/04/05 00:25:40;;;;;;;28.23;14.80;;;4.80;99.90;;;;;;5073502;28;20195;-79
2021/04/05 00:28:07;;;;;;;30.37;14.40;;;4.80;99.90;;;;;;5073533;28;20236;-78
2021/04/05 00:30:35;;;;;;;28.47;14.47;;;4.80;99.90;;;;;;5073601;28;20230;-78
2021/04/05 00:33:03;;;;;;;26.50;14.87;;;4.70;99.90;;;;;;5072777;28;20229;-78
2021/04/05 00:35:31;;;;;;;29.20;15.63;;;4.80;99.90;;;;;;5073225;28;20654;-77
2021/04/05 00:38:00;;;;;;;33.93;16.60;;;4.70;99.90;;;;;;5072588;28;20675;-78
2021/04/05 00:40:29;;;;;;;28.63;15.60;;;4.70;99.90;;;;;;5073018;28;20227;-79
2021/04/05 00:42:57;;;;;;;30.87;16.83;;;4.70;99.90;;;;;;5072999;28;20203;-78
2021/04/05 00:45:24;;;;;;;24.30;16.03;;;4.70;99.90;;;;;;5073076;28;20733;-78
2021/04/05 00:47:52;;;;;;;32.03;16.97;;;4.70;99.90;;;;;;5073120;28;20271;-78
2021/04/05 00:50:23;;;;;;;39.57;18.00;;;4.70;99.90;;;;;;5073111;28;20195;-79
2021/04/05 00:52:51;;;;;;;38.10;16.37;;;4.70;99.90;;;;;;5063597;28;20217;-80
2021/04/05 00:55:18;;;;;;;33.37;16.93;;;4.70;99.90;;;;;;5072547;28;20206;-78
2021/04/05 00:57:46;;;;;;;34.43;17.40;;;4.60;99.90;;;;;;5072392;28;20210;-79
2021/04/05 01:00:14;;;;;;;36.30;17.80;;;4.70;99.90;;;;;;5072818;28;20323;-80
2021/04/05 01:02:40;;;;;;;32.80;16.03;;;4.70;99.90;;;;;;5072712;28;20654;-78
2021/04/05 01:05:09;;;;;;;33.33;15.60;;;4.70;99.90;;;;;;5072885;28;20294;-78
2021/04/05 01:07:36;;;;;;;31.77;15.90;;;4.70;99.90;;;;;;5059506;28;20200;-78
2021/04/05 01:10:05;;;;;;;36.10;16.03;;;4.70;99.90;;;;;;5072748;28;20198;-79
2021/04/05 01:12:32;;;;;;;41.03;16.27;;;4.70;99.90;;;;;;5070815;28;20227;-77
2021/04/05 01:14:58;;;;;;;32.17;15.53;;;4.60;99.90;;;;;;5072178;28;20198;-78
2021/04/05 01:17:25;;;;;;;31.93;17.83;;;4.50;99.90;;;;;;5065220;28;20202;-79
2021/04/05 01:19:51;;;;;;;31.93;15.93;;;4.50;99.90;;;;;;5059072;28;20225;-79
2021/04/05 01:22:18;;;;;;;35.73;15.87;;;4.90;99.90;;;;;;5060131;28;20210;-78
2021/04/05 01:24:45;;;;;;;30.67;16.00;;;4.40;99.90;;;;;;5065667;28;20567;-79
2021/04/05 01:27:11;;;;;;;35.20;15.90;;;4.40;99.90;;;;;;5063628;28;20293;-78
2021/04/05 01:29:39;;;;;;;38.70;18.33;;;4.40;99.90;;;;;;5069516;28;20221;-78
2021/04/05 01:32:07;;;;;;;34.27;17.33;;;4.30;99.90;;;;;;5061833;28;20222;-79
2021/04/05 01:34:37;;;;;;;34.27;17.03;;;4.40;99.90;;;;;;5072610;28;20202;-78
2021/04/05 01:37:04;;;;;;;35.97;15.57;;;4.30;99.90;;;;;;5072474;28;20561;-79
2021/04/05 01:39:34;;;;;;;32.23;15.20;;;4.30;99.90;;;;;;5072091;28;20202;-79
2021/04/05 01:42:00;;;;;;;39.23;17.87;;;4.30;99.90;;;;;;5072458;28;20630;-79
2021/04/05 01:44:27;;;;;;;38.03;16.67;;;4.30;99.90;;;;;;5072529;28;20195;-79
2021/04/05 01:46:53;;;;;;;43.07;16.87;;;4.20;99.90;;;;;;5067584;28;20208;-79
2021/04/05 01:49:20;;;;;;;30.77;16.10;;;4.20;99.90;;;;;;5063076;28;20482;-79
2021/04/05 01:51:46;;;;;;;39.20;17.17;;;4.20;99.90;;;;;;5072321;28;20260;-78
2021/04/05 01:54:13;;;;;;;35.00;17.40;;;4.10;99.90;;;;;;5072153;28;20223;-78
2021/04/05 01:56:40;;;;;;;36.40;17.10;;;4.10;99.90;;;;;;5072544;28;20202;-78
2021/04/05 01:59:06;;;;;;;36.30;17.00;;;4.10;99.90;;;;;;5072140;28;20220;-78
2021/04/05 02:01:33;;;;;;;32.87;16.47;;;4.10;99.90;;;;;;5071929;28;20572;-78
2021/04/05 02:04:03;;;;;;;38.07;18.67;;;4.10;99.90;;;;;;5071989;28;20722;-78
2021/04/05 02:06:30;;;;;;;38.00;17.50;;;4.20;99.90;;;;;;5072419;28;20202;-78
2021/04/05 02:08:57;;;;;;;37.43;17.73;;;4.20;99.90;;;;;;5072347;28;20199;-78
2021/04/05 02:11:25;;;;;;;38.63;16.40;;;4.20;99.90;;;;;;5062093;28;20631;-78
2021/04/05 02:13:55;;;;;;;34.83;17.40;;;4.10;99.90;;;;;;5068308;28;20311;-77
2021/04/05 02:16:22;;;;;;;31.83;18.27;;;4.10;99.90;;;;;;5071993;28;20286;-78
2021/04/05 02:18:51;;;;;;;36.77;18.73;;;4.10;99.90;;;;;;5072112;28;20205;-78
2021/04/05 02:21:20;;;;;;;38.47;19.53;;;4.20;99.90;;;;;;5065752;28;20208;-78
2021/04/05 02:23:48;;;;;;;44.77;20.80;;;4.10;99.90;;;;;;5052229;28;20577;-80
2021/04/05 02:26:17;;;;;;;39.40;20.90;;;4.20;99.90;;;;;;5066219;28;20672;-80
2021/04/05 02:28:46;;;;;;;40.63;20.80;;;4.20;99.90;;;;;;5064222;28;20324;-79
2021/04/05 02:31:16;;;;;;;42.70;20.07;;;4.20;99.90;;;;;;5068140;28;20592;-79
2021/04/05 02:33:44;;;;;;;44.63;21.77;;;4.20;99.90;;;;;;5051988;28;20739;-79
2021/04/05 02:36:12;;;;;;;52.37;24.03;;;4.10;99.90;;;;;;5054835;28;20549;-79
2021/04/05 02:38:40;;;;;;;47.43;23.77;;;4.30;99.90;;;;;;5065235;28;20207;-80
2021/04/05 02:41:08;;;;;;;53.43;24.23;;;4.30;99.90;;;;;;5075118;28;20249;-79
2021/04/05 02:43:35;;;;;;;48.83;23.80;;;4.30;99.90;;;;;;5074931;28;20210;-79
2021/04/05 02:46:03;;;;;;;43.93;24.70;;;4.30;99.90;;;;;;5075388;28;20217;-80
2021/04/05 02:48:32;;;;;;;58.83;25.07;;;4.30;99.90;;;;;;5075627;28;20198;-79
2021/04/05 02:51:01;;;;;;;53.77;26.60;;;4.40;99.90;;;;;;5075389;28;20289;-80
2021/04/05 02:53:29;;;;;;;54.07;27.23;;;4.50;99.90;;;;;;5075258;28;20223;-78
2021/04/05 02:55:55;;;;;;;52.60;26.07;;;4.50;99.90;;;;;;5075435;28;20206;-80
2021/04/05 02:58:22;;;;;;;53.43;26.70;;;4.50;99.90;;;;;;5074549;28;20195;-79
2021/04/05 03:00:48;;;;;;;46.90;26.87;;;4.60;99.90;;;;;;5065496;28;20195;-80
2021/04/05 03:03:15;;;;;;;50.93;28.30;;;4.60;99.90;;;;;;5071139;28;20211;-79
2021/04/05 03:05:43;;;;;;;56.17;30.13;;;4.60;99.90;;;;;;5074911;28;20677;-80
2021/04/05 03:08:09;;;;;;;63.77;29.27;;;4.60;99.90;;;;;;5074919;28;20203;-79
2021/04/05 03:10:36;;;;;;;54.57;29.50;;;4.60;99.90;;;;;;5075288;28;20205;-80
2021/04/05 03:13:04;;;;;;;54.23;29.53;;;4.60;99.90;;;;;;5074740;28;20257;-79
2021/04/05 03:15:31;;;;;;;70.23;30.77;;;4.70;99.90;;;;;;5069982;28;20283;-79
2021/04/05 03:17:59;;;;;;;59.80;29.07;;;4.70;99.90;;;;;;5066138;28;20285;-79
2021/04/05 03:20:29;;;;;;;58.03;29.53;;;4.70;99.90;;;;;;5074587;28;20666;-78
2021/04/05 03:22:57;;;;;;;59.50;31.67;;;4.70;99.90;;;;;;5061141;28;20226;-79
2021/04/05 03:25:25;;;;;;;60.97;31.80;;;4.80;99.90;;;;;;5074355;28;20294;-79
2021/04/05 03:27:52;;;;;;;62.43;31.80;;;4.90;99.90;;;;;;5074149;28;20560;-79
2021/04/05 03:30:24;;;;;;;66.13;32.50;;;4.80;99.90;;;;;;5074271;28;20205;-78
2021/04/05 03:32:57;;;;;;;64.90;32.10;;;4.80;99.90;;;;;;5074447;28;20231;-78
2021/04/05 03:35:30;;;;;;;65.17;33.13;;;4.90;99.90;;;;;;5064181;28;20196;-79
2021/04/05 03:37:59;;;;;;;59.03;32.33;;;4.90;99.90;;;;;;5072077;28;20203;-79
2021/04/05 03:40:27;;;;;;;59.50;31.00;;;5.00;99.90;;;;;;5074126;28;20199;-78
2021/04/05 03:43:01;;;;;;;65.63;32.57;;;5.10;99.90;;;;;;5074466;28;20205;-78
2021/04/05 03:45:36;;;;;;;59.00;30.73;;;5.10;99.90;;;;;;5074476;28;20195;-78
2021/04/05 03:48:08;;;;;;;62.63;32.27;;;5.10;99.90;;;;;;5073510;28;20195;-78
2021/04/05 03:50:41;;;;;;;65.93;32.83;;;5.10;99.90;;;;;;5074000;28;20603;-78
2021/04/05 03:53:17;;;;;;;73.67;32.17;;;5.20;99.90;;;;;;5073713;28;20217;-77
2021/04/05 03:55:44;;;;;;;61.67;31.60;;;5.20;99.90;;;;;;5074264;28;20197;-79
2021/04/05 03:58:14;;;;;;;78.50;32.43;;;5.20;99.90;;;;;;5073960;28;20206;-79
2021/04/05 04:00:44;;;;;;;59.87;31.63;;;5.30;99.90;;;;;;5073692;28;20715;-79
2021/04/05 04:03:16;;;;;;;63.50;32.83;;;5.40;99.90;;;;;;5073536;28;20251;-79
2021/04/05 04:05:48;;;;;;;68.00;32.97;;;5.30;99.90;;;;;;5074001;28;20277;-80
2021/04/05 04:08:25;;;;;;;60.33;31.33;;;5.20;99.90;;;;;;5073695;28;20195;-80
2021/04/05 04:10:54;;;;;;;67.27;34.33;;;5.30;99.90;;;;;;5074304;28;20219;-81
2021/04/05 04:13:24;;;;;;;63.47;31.73;;;5.30;99.90;;;;;;5073352;28;20233;-80
2021/04/05 04:15:52;;;;;;;59.87;31.73;;;5.30;99.90;;;;;;5074127;28;20229;-80
2021/04/05 04:18:20;;;;;;;62.57;31.43;;;5.50;99.90;;;;;;5074108;28;20207;-80
2021/04/05 04:20:47;;;;;;;68.13;34.70;;;5.20;99.90;;;;;;5067210;28;20203;-78
2021/04/05 04:23:14;;;;;;;59.83;32.90;;;5.30;99.90;;;;;;5061854;28;20730;-79
2021/04/05 04:25:42;;;;;;;72.23;34.90;;;5.30;99.90;;;;;;5073467;28;20244;-79
2021/04/05 04:28:14;;;;;;;67.03;33.83;;;5.40;99.90;;;;;;5073662;28;20244;-79
2021/04/05 04:30:41;;;;;;;67.07;32.90;;;5.30;99.90;;;;;;5073625;28;20298;-78
2021/04/05 04:33:09;;;;;;;67.77;34.37;;;5.50;99.90;;;;;;5059578;28;20231;-79
2021/04/05 04:35:37;;;;;;;64.17;33.03;;;5.40;99.90;;;;;;5072903;28;20712;-79
2021/04/05 04:38:05;;;;;;;68.50;33.37;;;5.40;99.90;;;;;;5073210;28;20289;-79
2021/04/05 04:40:34;;;;;;;67.67;34.33;;;5.40;99.90;;;;;;5073182;28;20642;-79
2021/04/05 04:43:03;;;;;;;65.67;33.07;;;5.40;99.90;;;;;;5073155;28;20199;-80
2021/04/05 04:45:30;;;;;;;62.63;35.17;;;5.50;99.90;;;;;;5072972;28;20650;-79
2021/04/05 04:47:57;;;;;;;72.37;34.37;;;5.50;99.90;;;;;;5073259;28;20256;-79
2021/04/05 04:50:24;;;;;;;65.57;32.53;;;5.60;99.90;;;;;;5072822;28;20202;-80
2021/04/05 04:52:52;;;;;;;69.13;32.20;;;5.60;99.90;;;;;;5072709;28;20324;-80
2021/04/05 04:55:20;;;;;;;62.33;32.53;;;5.80;99.90;;;;;;5073111;28;20226;-81
2021/04/05 04:57:47;;;;;;;67.03;33.87;;;5.70;99.90;;;;;;5072682;28;20209;-81
2021/04/05 05:00:16;;;;;;;68.03;32.53;;;5.80;99.90;;;;;;5072232;28;20297;-80
2021/04/05 05:02:44;;;;;;;64.23;31.57;;;5.80;99.90;;;;;;5072938;28;20202;-80
2021/04/05 05:05:13;;;;;;;60.87;32.43;;;5.80;99.90;;;;;;5072581;28;20203;-80
2021/04/05 05:07:41;;;;;;;66.00;33.57;;;5.90;99.90;;;;;;5073179;28;20233;-80
2021/04/05 05:10:10;;;;;;;64.53;30.90;;;5.90;99.90;;;;;;5072870;28;20291;-80
2021/04/05 05:12:38;;;;;;;59.00;31.73;;;6.00;99.90;;;;;;5072960;28;20679;-80
2021/04/05 05:15:07;;;;;;;63.83;31.67;;;6.00;99.90;;;;;;5071683;28;20202;-80
2021/04/05 05:17:34;;;;;;;65.20;33.73;;;6.10;99.90;;;;;;5060202;28;20252;-80
2021/04/05 05:20:01;;;;;;;64.63;32.90;;;6.20;99.90;;;;;;5072808;28;20207;-80
2021/04/05 05:22:29;;;;;;;60.67;31.80;;;6.10;99.90;;;;;;5058421;28;20199;-80
2021/04/05 05:24:56;;;;;;;60.17;31.17;;;6.10;99.90;;;;;;5064476;28;20612;-80
2021/04/05 05:27:24;;;;;;;59.63;29.73;;;6.10;99.90;;;;;;5067098;28;20650;-81
2021/04/05 05:29:52;;;;;;;62.50;32.90;;;6.10;99.90;;;;;;5065597;28;20555;-82
2021/04/05 05:32:18;;;;;;;59.53;29.90;;;6.10;99.90;;;;;;5065920;28;20222;-81
2021/04/05 05:34:47;;;;;;;56.50;29.80;;;6.20;99.90;;;;;;5072805;28;20278;-80
2021/04/05 05:37:14;;;;;;;52.90;28.27;;;6.20;99.90;;;;;;5072835;28;20205;-79
2021/04/05 05:39:41;;;;;;;59.37;29.57;;;6.30;99.90;;;;;;5072084;28;20202;-79
2021/04/05 05:42:13;;;;;;;47.97;29.10;;;6.40;99.90;;;;;;5062362;28;20203;-79
2021/04/05 05:44:46;;;;;;;55.63;29.40;;;6.50;99.90;;;;;;5069161;28;20199;-79
2021/04/05 05:47:23;;;;;;;57.07;29.63;;;6.50;99.90;;;;;;5072544;28;20285;-78
2021/04/05 05:49:56;;;;;;;57.77;27.80;;;6.40;99.90;;;;;;5072375;28;20201;-79
2021/04/05 05:52:39;;;;;;;58.00;28.50;;;6.60;99.90;;;;;;5072916;28;20248;-80
2021/04/05 05:55:26;;;;;;;59.57;29.50;;;6.60;99.90;;;;;;5072403;28;20281;-80
2021/04/05 05:58:04;;;;;;;55.13;28.03;;;6.70;99.90;;;;;;5072212;28;20633;-79
2021/04/05 06:00:35;;;;;;;50.30;26.43;;;6.70;99.90;;;;;;5060013;28;20556;-79
2021/04/05 06:03:29;;;;;;;53.57;27.07;;;6.80;99.90;;;;;;5072445;28;20285;-80
2021/04/05 06:06:10;;;;;;;51.80;25.43;;;6.80;99.90;;;;;;5072697;28;20199;-79
2021/04/05 06:08:52;;;;;;;45.97;25.30;;;6.80;99.90;;;;;;5072287;28;20677;-80
2021/04/05 06:11:24;;;;;;;49.57;23.97;;;6.90;99.90;;;;;;5075681;28;20194;-79
2021/04/05 06:14:00;;;;;;;42.97;23.43;;;7.00;99.90;;;;;;5075492;28;20313;-79
2021/04/05 06:16:36;;;;;;;43.93;22.97;;;7.10;99.90;;;;;;5076166;28;20199;-80
2021/04/05 06:19:18;;;;;;;51.77;25.13;;;7.20;99.90;;;;;;5076173;28;20206;-81
2021/04/05 06:21:56;;;;;;;48.03;23.03;;;7.20;99.90;;;;;;5065929;28;20283;-80
2021/04/05 06:24:28;;;;;;;39.80;22.80;;;7.30;99.90;;;;;;5074222;28;20280;-78
2021/04/05 06:26:58;;;;;;;37.37;22.50;;;7.40;99.90;;;;;;5075505;28;20226;-79
2021/04/05 06:29:33;;;;;;;40.63;23.50;;;7.40;99.90;;;;;;5075743;28;20198;-79
2021/04/05 06:32:39;;;;;;;42.10;21.93;;;7.50;99.90;;;;;;5075842;28;20293;-79
2021/04/05 06:35:35;;;;;;;39.90;21.17;;;7.60;99.90;;;;;;5025623;28;20581;-79
2021/04/05 06:38:10;;;;;;;38.60;20.87;;;7.70;99.90;;;;;;5074250;28;20191;-79
2021/04/05 06:40:39;;;;;;;39.07;20.93;;;7.70;99.90;;;;;;5075909;28;20656;-80
2021/04/05 06:43:39;;;;;;;38.77;20.37;;;7.80;99.90;;;;;;5075479;28;20203;-78
2021/04/05 06:46:21;;;;;;;39.57;21.33;;;7.80;99.90;;;;;;5070698;28;20315;-80
2021/04/05 06:49:13;;;;;;;40.60;19.77;;;7.80;99.90;;;;;;5075659;28;20272;-80
2021/04/05 06:51:53;;;;;;;30.03;18.53;;;7.80;99.90;;;;;;5074897;28;20209;-79
2021/04/05 06:54:30;;;;;;;39.50;20.10;;;7.90;99.90;;;;;;5075605;28;20210;-79
2021/04/05 06:57:07;;;;;;;30.27;18.00;;;7.80;99.90;;;;;;5061481;28;20281;-80
2021/04/05 06:59:51;;;;;;;35.43;20.07;;;7.80;99.90;;;;;;5075369;28;20289;-80
2021/04/05 07:02:49;;;;;;;36.93;18.93;;;7.80;99.90;;;;;;5059683;28;20221;-79
2021/04/05 07:05:28;;;;;;;31.57;18.70;;;7.90;99.90;;;;;;4999831;28;20690;-79
2021/04/05 07:08:01;;;;;;;31.43;18.87;;;7.90;99.90;;;;;;5080064;28;20210;-79
2021/04/05 07:10:33;;;;;;;33.33;18.67;;;7.90;99.90;;;;;;5077578;28;20195;-80
2021/04/05 07:13:04;;;;;;;30.50;18.53;;;7.90;99.90;;;;;;5081246;28;20561;-80
2021/04/05 07:15:52;;;;;;;33.93;19.23;;;7.90;99.90;;;;;;5070210;28;20195;-82
2021/04/05 07:18:32;;;;;;;36.37;19.30;;;7.90;99.90;;;;;;5064339;28;20195;-81
2021/04/05 07:21:12;;;;;;;37.47;18.43;;;7.70;99.90;;;;;;5068515;28;20248;-80
2021/04/05 07:23:49;;;;;;;22.60;11.97;;;7.70;99.90;;;;;;5067143;28;20618;-79
2021/04/05 07:26:21;;;;;;;17.23;8.40;;;7.40;99.90;;;;;;5074235;28;20222;-81
2021/04/05 07:28:55;;;;;;;12.77;6.47;;;7.10;99.90;;;;;;5073660;28;20195;-79
2021/04/05 07:31:35;;;;;;;13.40;5.43;;;6.80;99.90;;;;;;5073277;28;20195;-81
2021/04/05 07:34:10;;;;;;;15.60;6.27;;;6.70;99.90;;;;;;5073807;28;20249;-80
2021/04/05 07:36:43;;;;;;;11.50;5.67;;;6.70;99.90;;;;;;5073723;28;20642;-79
2021/04/05 07:39:20;;;;;;;13.00;5.73;;;6.70;99.90;;;;;;5073902;28;20195;-80
2021/04/05 07:41:52;;;;;;;10.70;5.40;;;6.70;99.90;;;;;;5076474;28;20246;-80
2021/04/05 07:44:47;;;;;;;14.30;6.83;;;6.70;99.90;;;;;;5073806;28;20205;-81
2021/04/05 07:47:27;;;;;;;17.47;5.93;;;6.70;99.90;;;;;;5062645;28;20195;-80
2021/04/05 07:49:59;;;;;;;16.87;6.50;;;6.80;99.90;;;;;;5071988;28;20194;-79
2021/04/05 07:52:41;;;;;;;13.20;6.27;;;6.80;99.90;;;;;;5077077;28;20314;-80
2021/04/05 07:55:10;;;;;;;12.93;6.07;;;6.80;99.90;;;;;;5076495;28;20205;-79
2021/04/05 07:57:50;;;;;;;16.10;6.20;;;6.70;99.90;;;;;;5076941;28;20210;-81
2021/04/05 08:00:27;;;;;;;15.40;6.27;;;6.70;99.90;;;;;;5077351;28;20681;-79
2021/04/05 08:03:02;;;;;;;17.47;6.63;;;6.80;99.90;;;;;;5078543;28;20590;-77
2021/04/05 08:05:40;;;;;;;16.57;4.77;;;6.70;99.90;;;;;;5077898;28;20534;-79
2021/04/05 08:08:30;;;;;;;15.80;4.53;;;6.70;99.90;;;;;;5078485;28;20776;-81
2021/04/05 08:11:05;;;;;;;16.90;5.27;;;6.60;99.90;;;;;;5079122;28;20199;-80
2021/04/05 08:13:47;;;;;;;14.63;4.13;;;6.50;99.90;;;;;;5075934;28;20697;-79
2021/04/05 08:16:20;;;;;;;8.80;3.80;;;6.40;99.90;;;;;;5071566;28;20202;-79
2021/04/05 08:18:55;;;;;;;9.63;2.53;;;6.30;99.90;;;;;;5071167;28;20233;-82
2021/04/05 08:21:25;;;;;;;4.03;1.53;;;6.10;99.90;;;;;;5052354;28;20233;-77
2021/04/05 08:23:58;;;;;;;5.03;1.03;;;5.90;99.90;;;;;;5066548;28;20213;-78
2021/04/05 08:26:33;;;;;;;3.07;1.13;;;5.80;99.90;;;;;;5073354;28;20203;-78
2021/04/05 08:29:10;;;;;;;6.93;2.10;;;5.80;99.90;;;;;;5073307;28;20198;-78
2021/04/05 08:32:04;;;;;;;6.67;2.93;;;5.60;99.90;;;;;;5073783;28;20289;-77
2021/04/05 08:34:51;;;;;;;7.73;2.90;;;5.50;99.90;;;;;;5072631;28;20737;-79
2021/04/05 08:37:23;;;;;;;8.67;2.73;;;5.40;99.90;;;;;;5073353;28;20206;-80
2021/04/05 08:40:01;;;;;;;16.07;4.70;;;5.20;99.90;;;;;;5073183;28;20361;-81
2021/04/05 08:42:33;;;;;;;12.73;3.03;;;5.10;99.90;;;;;;5073596;28;20285;-81
2021/04/05 08:45:11;;;;;;;17.47;4.60;;;4.90;99.90;;;;;;5072897;28;20195;-81
2021/04/05 08:47:41;;;;;;;17.33;3.70;;;5.00;99.90;;;;;;5073073;28;20202;-81
2021/04/05 08:50:10;;;;;;;16.00;4.27;;;4.90;99.90;;;;;;5073023;28;20203;-82
2021/04/05 08:52:40;;;;;;;19.07;4.30;;;5.00;99.90;;;;;;5072918;28;20219;-84
2021/04/05 08:55:08;;;;;;;18.83;4.50;;;5.00;99.90;;;;;;5072874;28;20710;-84
2021/04/05 08:57:43;;;;;;;21.63;4.17;;;5.00;99.90;;;;;;5073115;28;20207;-86
2021/04/05 09:00:15;;;;;;;15.77;4.23;;;4.90;99.90;;;;;;5073135;28;20645;-84
2021/04/05 09:02:48;;;;;;;22.07;5.00;;;4.90;99.90;;;;;;5072647;28;20608;-83
2021/04/05 09:05:26;;;;;;;20.50;5.20;;;4.90;99.90;;;;;;5072873;28;20195;-85
2021/04/05 09:08:03;;;;;;;19.37;3.80;;;5.10;99.90;;;;;;5072738;28;20199;-88
2021/04/05 09:10:33;;;;;;;18.60;4.10;;;5.00;99.90;;;;;;5073011;28;20268;-83
2021/04/05 09:13:13;;;;;;;13.97;3.17;;;5.10;99.90;;;;;;5072984;28;20749;-83
2021/04/05 09:16:01;;;;;;;14.27;3.47;;;4.90;99.90;;;;;;5059064;28;20202;-82
2021/04/05 09:18:51;;;;;;;15.37;3.93;;;4.70;99.90;;;;;;5072804;28;20203;-81
2021/04/05 09:21:30;;;;;;;10.73;3.27;;;4.70;99.90;;;;;;5053071;28;20259;-81
2021/04/05 09:24:19;;;;;;;13.50;3.00;;;4.70;99.90;;;;;;5067328;28;20202;-82
2021/04/05 09:27:05;;;;;;;15.83;3.03;;;4.60;99.90;;;;;;5072969;28;20191;-82
2021/04/05 09:29:41;;;;;;;16.87;3.53;;;5.20;99.90;;;;;;5072611;28;20226;-81
2021/04/05 09:32:43;;;;;;;21.27;3.87;;;4.90;99.90;;;;;;5073094;28;20267;-81
2021/04/05 09:35:34;;;;;;;16.60;4.03;;;4.90;99.90;;;;;;5061843;28;20212;-83
2021/04/05 09:38:38;;;;;;;18.07;4.10;;;5.00;99.90;;;;;;5070850;28;20234;-83
2021/04/05 09:41:22;;;;;;;17.17;3.23;;;5.00;99.90;;;;;;5050440;28;20199;-83
2021/04/05 09:44:26;;;;;;;13.53;3.43;;;5.00;99.90;;;;;;5061987;28;20552;-84
2021/04/05 09:47:16;;;;;;;14.90;3.53;;;5.10;99.90;;;;;;5063827;28;20199;-84
2021/04/05 09:49:54;;;;;;;14.63;4.10;;;4.90;99.90;;;;;;5076256;28;20190;-85
2021/04/05 09:52:59;;;;;;;12.17;2.87;;;5.00;99.90;;;;;;5076623;28;20661;-82
2021/04/05 09:55:30;;;;;;;17.20;3.27;;;5.30;99.90;;;;;;5052538;28;20217;-83
2021/04/05 09:58:02;;;;;;;12.30;3.50;;;5.20;99.90;;;;;;5075842;28;20546;-82
2021/04/05 10:00:30;;;;;;;10.83;2.90;;;5.60;99.90;;;;;;5076542;28;20704;-82
2021/04/05 10:03:02;;;;;;;12.23;2.93;;;5.80;99.90;;;;;;5076948;28;20207;-83
2021/04/05 10:05:32;;;;;;;7.30;2.90;;;5.80;99.90;;;;;;5062772;28;20199;-82
2021/04/05 10:08:01;;;;;;;15.63;3.47;;;6.00;99.90;;;;;;5076279;28;20207;-82
2021/04/05 10:10:29;;;;;;;20.27;4.17;;;5.90;99.90;;;;;;5076989;28;20457;-83
2021/04/05 10:12:58;;;;;;;10.53;3.20;;;5.60;99.90;;;;;;5077683;28;20489;-82
2021/04/05 10:15:27;;;;;;;9.40;2.50;;;5.20;99.90;;;;;;5076115;28;20202;-83
2021/04/05 10:17:56;;;;;;;6.00;1.57;;;4.20;99.90;;;;;;5076428;28;20286;-84
2021/04/05 10:20:26;;;;;;;8.27;2.73;;;3.90;99.90;;;;;;5075284;28;20286;-83
2021/04/05 10:22:55;;;;;;;12.23;2.70;;;4.00;99.90;;;;;;5075652;28;20627;-84
2021/04/05 10:25:25;;;;;;;11.23;2.90;;;4.30;99.90;;;;;;5075931;28;20206;-84
2021/04/05 10:27:55;;;;;;;12.03;3.03;;;4.70;99.90;;;;;;5075604;28;20211;-84
2021/04/05 10:30:31;;;;;;;6.47;2.27;;;5.00;99.90;;;;;;5075977;28;20203;-84
2021/04/05 10:33:01;;;;;;;10.13;2.37;;;5.40;99.90;;;;;;5075532;28;20305;-84
2021/04/05 10:35:29;;;;;;;10.40;2.60;;;5.80;99.90;;;;;;5059354;28;20208;-85
2021/04/05 10:37:56;;;;;;;12.67;2.87;;;6.00;99.90;;;;;;5073360;28;20249;-85
2021/04/05 10:40:23;;;;;;;9.13;2.33;;;6.20;99.90;;;;;;5075768;28;20209;-83
2021/04/05 10:42:53;;;;;;;14.47;2.70;;;6.20;99.90;;;;;;5075213;28;20299;-85
2021/04/05 10:45:22;;;;;;;10.93;2.80;;;5.90;99.90;;;;;;5085137;28;20589;-84
2021/04/05 10:47:57;;;;;;;10.50;2.40;;;5.70;99.90;;;;;;5080098;28;20199;-85
2021/04/05 10:50:29;;;;;;;10.27;2.60;;;5.70;99.90;;;;;;5067311;28;20610;-84
2021/04/05 10:53:03;;;;;;;7.93;2.40;;;5.70;99.90;;;;;;5070495;28;20238;-83
2021/04/05 10:55:31;;;;;;;16.17;3.20;;;5.80;99.90;;;;;;5076707;28;20195;-84
2021/04/05 10:58:00;;;;;;;12.60;2.80;;;5.90;99.90;;;;;;5074912;28;20230;-86
2021/04/05 11:00:34;;;;;;;13.40;3.07;;;5.80;99.90;;;;;;5062851;28;20234;-86
2021/04/05 11:03:08;;;;;;;16.20;2.73;;;5.70;99.90;;;;;;5075372;28;20356;-88
2021/04/05 11:05:38;;;;;;;12.60;2.90;;;5.40;99.90;;;;;;5068804;28;20202;-86
2021/04/05 11:08:05;;;;;;;10.93;2.77;;;5.30;99.90;;;;;;5070420;28;20264;-87
2021/04/05 11:10:35;;;;;;;10.60;3.00;;;5.20;99.90;;;;;;5077328;28;20206;-85
2021/04/05 11:13:05;;;;;;;12.40;3.17;;;5.50;99.90;;;;;;5076141;28;20707;-86
2021/04/05 11:15:36;;;;;;;11.60;2.50;;;5.70;99.90;;;;;;5087613;28;20561;-87
2021/04/05 11:18:04;;;;;;;7.83;2.67;;;6.00;99.90;;;;;;5075837;28;20282;-86
2021/04/05 11:20:35;;;;;;;17.87;3.50;;;5.90;99.90;;;;;;5075037;28;20282;-86
2021/04/05 11:23:05;;;;;;;11.23;3.10;;;5.90;99.90;;;;;;5063136;28;20282;-88
2021/04/05 11:25:38;;;;;;;12.40;2.47;;;6.20;99.90;;;;;;5076132;28;20203;-86
2021/04/05 11:28:10;;;;;;;9.27;2.80;;;6.40;99.90;;;;;;5075715;28;20218;-87
2021/04/05 11:30:39;;;;;;;14.23;3.77;;;6.50;99.90;;;;;;5075613;28;20199;-89
2021/04/05 11:33:10;;;;;;;12.40;3.23;;;6.50;99.90;;;;;;5078818;28;20254;-89
2021/04/05 11:35:42;;;;;;;11.33;3.17;;;6.50;99.90;;;;;;5079889;28;20229;-88
2021/04/05 11:38:13;;;;;;;14.87;2.57;;;6.30;99.90;;;;;;5083608;28;20216;-87
2021/04/05 11:40:43;;;;;;;12.60;2.87;;;6.60;99.90;;;;;;5083167;28;20222;-89
2021/04/05 11:43:19;;;;;;;13.47;2.40;;;6.80;99.90;;;;;;5079876;28;20195;-91
2021/04/05 11:45:53;;;;;;;12.63;3.23;;;6.80;99.90;;;;;;5079821;28;20244;-91
2021/04/05 11:48:22;;;;;;;12.90;2.90;;;7.00;99.90;;;;;;5077516;28;20199;-89
2021/04/05 11:50:49;;;;;;;11.27;2.77;;;7.00;99.90;;;;;;5076445;28;20224;-89
2021/04/05 11:53:25;;;;;;;11.83;3.17;;;7.40;99.90;;;;;;5076807;28;20214;-90
2021/04/05 11:56:04;;;;;;;13.80;2.77;;;7.40;99.90;;;;;;5078470;28;20579;-89
2021/04/05 11:58:39;;;;;;;14.17;3.53;;;7.50;99.90;;;;;;5077119;28;20275;-88
2021/04/05 12:01:11;;;;;;;9.80;2.30;;;7.20;99.90;;;;;;5078261;28;20206;-87
2021/04/05 12:03:49;;;;;;;8.50;2.37;;;6.60;99.90;;;;;;5079404;28;20650;-91
2021/04/05 12:06:20;;;;;;;11.03;3.13;;;6.30;99.90;;;;;;5075949;28;20206;-83
2021/04/05 12:08:52;;;;;;;13.20;3.37;;;6.20;99.90;;;;;;5068740;28;20290;-84
2021/04/05 12:11:23;;;;;;;10.20;2.50;;;6.10;99.90;;;;;;5067405;28;20213;-86
2021/04/05 12:13:54;;;;;;;10.73;2.53;;;6.40;99.90;;;;;;5070068;28;20245;-83
2021/04/05 12:16:24;;;;;;;8.50;2.93;;;6.40;99.90;;;;;;5065986;28;20646;-84
2021/04/05 12:18:52;;;;;;;8.13;2.20;;;6.60;99.90;;;;;;5074839;28;20238;-87
2021/04/05 12:21:19;;;;;;;11.47;2.80;;;6.70;99.90;;;;;;5062001;28;20237;-88
2021/04/05 12:23:55;;;;;;;10.10;2.53;;;6.90;99.90;;;;;;5075061;28;20202;-86
2021/04/05 12:26:33;;;;;;;8.03;2.60;;;7.20;99.90;;;;;;5062575;28;20301;-89
2021/04/05 12:29:06;;;;;;;13.13;2.53;;;7.20;99.90;;;;;;5080763;28;20579;-89
2021/04/05 12:31:34;;;;;;;8.57;2.10;;;6.60;99.90;;;;;;5089125;28;20263;-89
2021/04/05 12:34:08;;;;;;;9.80;2.20;;;6.30;99.90;;;;;;5079326;28;20218;-89
2021/04/05 12:36:39;;;;;;;5.60;1.93;;;6.30;99.90;;;;;;5076032;28;20226;-90
2021/04/05 12:39:09;;;;;;;8.77;2.13;;;6.20;99.90;;;;;;5080417;28;20694;-89
2021/04/05 12:41:38;;;;;;;9.33;2.50;;;6.10;99.90;;;;;;5074386;28;20191;-84
2021/04/05 12:44:08;;;;;;;4.60;1.70;;;6.30;99.90;;;;;;5064559;28;20208;-85
2021/04/05 12:46:37;;;;;;;11.77;2.40;;;6.50;99.90;;;;;;5073358;28;20651;-85
2021/04/05 12:49:05;;;;;;;9.50;2.60;;;6.80;99.90;;;;;;5073847;28;20203;-86
2021/04/05 12:51:31;;;;;;;9.03;2.80;;;6.80;99.90;;;;;;5073205;28;20210;-84
2021/04/05 12:54:03;;;;;;;8.93;2.30;;;6.80;99.90;;;;;;5074283;28;20305;-82
2021/04/05 12:56:30;;;;;;;6.57;2.47;;;6.50;99.90;;;;;;5057098;28;20252;-81
2021/04/05 12:58:57;;;;;;;6.97;2.10;;;6.20;99.90;;;;;;5062208;28;20229;-82
2021/04/05 13:01:27;;;;;;;4.50;1.50;;;5.90;99.90;;;;;;5059766;28;20207;-85
2021/04/05 13:03:54;;;;;;;4.43;2.30;;;5.80;99.90;;;;;;5073817;28;20198;-87
2021/04/05 13:06:23;;;;;;;8.33;2.23;;;5.80;99.90;;;;;;5073611;28;20198;-85
2021/04/05 13:08:54;;;;;;;8.50;2.00;;;5.90;99.90;;;;;;5073105;28;20580;-84